sensor_id;sensor_type;location;lat;lon;timestamp;pressure;altitude;pressure_sealevel;temperature;humidity
54172;BME280;40076;52.354;4.970;2024-03-23T00:55:29;101103.19;;;9.15;100.00
54172;BME280;40076;52.354;4.970;2024-03-23T00:57:54;101100.81;;;9.14;100.00
54172;BME280;40076;52.354;4.970;2024-03-23T01:00:20;101093.00;;;9.12;100.00
54172;BME280;40076;52.354;4.970;2024-03-23T01:02:45;101097.09;;;9.10;100.00
54172;BME280;40076;52.354;4.970;2024-03-23T01:05:13;101086.59;;;9.08;100.00
54172;BME280;40076;52.354;4.970;2024-03-23T01:07:38;101086.13;;;9.06;100.00
54172;BME280;40076;52.354;4.970;2024-03-23T01:10:04;101072.16;;;9.04;100.00
54172;BME280;40076;52.354;4.970;2024-03-23T01:12:29;101070.06;;;9.01;100.00
54172;BME280;40076;52.354;4.970;2024-03-23T01:14:55;101063.06;;;9.00;100.00
54172;BME280;40076;52.354;4.970;2024-03-23T01:17:20;101055.59;;;8.97;100.00
54172;BME280;40076;52.354;4.970;2024-03-23T01:19:45;101062.38;;;8.95;100.00
54172;BME280;40076;52.354;4.970;2024-03-23T01:22:13;101047.63;;;8.92;100.00
54172;BME280;40076;52.354;4.970;2024-03-23T01:24:38;101052.81;;;8.88;100.00
54172;BME280;40076;52.354;4.970;2024-03-23T01:27:04;101048.00;;;8.85;100.00
54172;BME280;40076;52.354;4.970;2024-03-23T01:29:29;101054.03;;;8.82;100.00
54172;BME280;40076;52.354;4.970;2024-03-23T01:31:55;101044.63;;;8.80;100.00
54172;BME280;40076;52.354;4.970;2024-03-23T01:34:20;101045.72;;;8.79;100.00
54172;BME280;40076;52.354;4.970;2024-03-23T01:36:50;101043.94;;;8.74;100.00
54172;BME280;40076;52.354;4.970;2024-03-23T01:39:15;101046.94;;;8.73;100.00
54172;BME280;40076;52.354;4.970;2024-03-23T01:41:40;101036.75;;;8.70;100.00
54172;BME280;40076;52.354;4.970;2024-03-23T01:44:08;101035.47;;;8.67;100.00
54172;BME280;40076;52.354;4.970;2024-03-23T01:46:35;101033.38;;;8.64;100.00
54172;BME280;40076;52.354;4.970;2024-03-23T01:49:01;101037.50;;;8.62;100.00
54172;BME280;40076;52.354;4.970;2024-03-23T01:51:27;101032.09;;;8.62;100.00
54172;BME280;40076;52.354;4.970;2024-03-23T01:53:54;101036.97;;;8.60;100.00
54172;BME280;40076;52.354;4.970;2024-03-23T01:56:20;101036.19;;;8.59;100.00
54172;BME280;40076;52.354;4.970;2024-03-23T01:58:46;101030.28;;;8.57;100.00
54172;BME280;40076;52.354;4.970;2024-03-23T02:01:13;101026.28;;;8.55;100.00
54172;BME280;40076;52.354;4.970;2024-03-23T02:03:39;101032.47;;;8.55;100.00
54172;BME280;40076;52.354;4.970;2024-03-23T02:06:04;101025.53;;;8.54;100.00
54172;BME280;40076;52.354;4.970;2024-03-23T02:08:32;101028.50;;;8.52;100.00
54172;BME280;40076;52.354;4.970;2024-03-23T02:10:58;101021.00;;;8.49;100.00
54172;BME280;40076;52.354;4.970;2024-03-23T02:13:24;101020.72;;;8.51;100.00
54172;BME280;40076;52.354;4.970;2024-03-23T02:15:49;101028.81;;;8.51;100.00
54172;BME280;40076;52.354;4.970;2024-03-23T02:18:14;101016.44;;;8.50;100.00
54172;BME280;40076;52.354;4.970;2024-03-23T02:20:40;101023.19;;;8.47;100.00
54172;BME280;40076;52.354;4.970;2024-03-23T02:23:05;101020.03;;;8.45;100.00
54172;BME280;40076;52.354;4.970;2024-03-23T02:25:33;101015.53;;;8.41;100.00
54172;BME280;40076;52.354;4.970;2024-03-23T02:27:59;101009.34;;;8.40;100.00
54172;BME280;40076;52.354;4.970;2024-03-23T02:30:25;101012.84;;;8.41;100.00
54172;BME280;40076;52.354;4.970;2024-03-23T02:32:51;101008.53;;;8.40;100.00
54172;BME280;40076;52.354;4.970;2024-03-23T02:35:16;101005.84;;;8.40;100.00
54172;BME280;40076;52.354;4.970;2024-03-23T02:37:42;101004.28;;;8.39;100.00
54172;BME280;40076;52.354;4.970;2024-03-23T02:40:08;100997.28;;;8.38;100.00
54172;BME280;40076;52.354;4.970;2024-03-23T02:42:33;100991.41;;;8.36;100.00
54172;BME280;40076;52.354;4.970;2024-03-23T02:44:59;100987.63;;;8.37;100.00
54172;BME280;40076;52.354;4.970;2024-03-23T02:47:24;100992.50;;;8.35;100.00
54172;BME280;40076;52.354;4.970;2024-03-23T02:49:50;100978.53;;;8.33;100.00
54172;BME280;40076;52.354;4.970;2024-03-23T02:52:15;100983.91;;;8.33;100.00
54172;BME280;40076;52.354;4.970;2024-03-23T02:54:40;100980.75;;;8.31;100.00
54172;BME280;40076;52.354;4.970;2024-03-23T02:57:10;100982.09;;;8.28;100.00
54172;BME280;40076;52.354;4.970;2024-03-23T02:59:35;100981.81;;;8.30;100.00
54172;BME280;40076;52.354;4.970;2024-03-23T03:02:00;100982.59;;;8.30;100.00
54172;BME280;40076;52.354;4.970;2024-03-23T03:04:26;100985.31;;;8.30;100.00
54172;BME280;40076;52.354;4.970;2024-03-23T03:06:51;100975.13;;;8.27;100.00
54172;BME280;40076;52.354;4.970;2024-03-23T03:09:17;100979.69;;;8.27;100.00
54172;BME280;40076;52.354;4.970;2024-03-23T03:11:42;100972.72;;;8.26;100.00
54172;BME280;40076;52.354;4.970;2024-03-23T03:14:07;100975.72;;;8.24;100.00
54172;BME280;40076;52.354;4.970;2024-03-23T03:16:33;100973.34;;;8.23;100.00
54172;BME280;40076;52.354;4.970;2024-03-23T03:18:58;100979.00;;;8.21;100.00
54172;BME280;40076;52.354;4.970;2024-03-23T03:21:24;100970.94;;;8.21;100.00
54172;BME280;40076;52.354;4.970;2024-03-23T03:23:49;100965.84;;;8.20;100.00
54172;BME280;40076;52.354;4.970;2024-03-23T03:26:19;100963.44;;;8.18;100.00
54172;BME280;40076;52.354;4.970;2024-03-23T03:28:44;100963.44;;;8.18;100.00
54172;BME280;40076;52.354;4.970;2024-03-23T03:31:16;100957.59;;;8.16;100.00
54172;BME280;40076;52.354;4.970;2024-03-23T03:33:42;100956.28;;;8.13;100.00
54172;BME280;40076;52.354;4.970;2024-03-23T03:36:08;100953.59;;;8.13;100.00
54172;BME280;40076;52.354;4.970;2024-03-23T03:38:34;100953.09;;;8.11;100.00
54172;BME280;40076;52.354;4.970;2024-03-23T03:41:05;100954.97;;;8.11;100.00
54172;BME280;40076;52.354;4.970;2024-03-23T03:43:31;100956.06;;;8.10;100.00
54172;BME280;40076;52.354;4.970;2024-03-23T03:45:58;100947.19;;;8.09;100.00
54172;BME280;40076;52.354;4.970;2024-03-23T03:48:24;100952.56;;;8.09;100.00
54172;BME280;40076;52.354;4.970;2024-03-23T03:50:49;100942.94;;;8.08;100.00
54172;BME280;40076;52.354;4.970;2024-03-23T03:53:15;100945.91;;;8.07;100.00
54172;BME280;40076;52.354;4.970;2024-03-23T03:55:43;100941.34;;;8.07;100.00
54172;BME280;40076;52.354;4.970;2024-03-23T03:58:09;100938.94;;;8.06;100.00
54172;BME280;40076;52.354;4.970;2024-03-23T04:00:34;100935.16;;;8.07;100.00
54172;BME280;40076;52.354;4.970;2024-03-23T04:03:00;100932.47;;;8.07;100.00
54172;BME280;40076;52.354;4.970;2024-03-23T04:05:26;100928.97;;;8.06;100.00
54172;BME280;40076;52.354;4.970;2024-03-23T04:07:51;100932.75;;;8.05;100.00
54172;BME280;40076;52.354;4.970;2024-03-23T04:10:16;100931.97;;;8.05;100.00
54172;BME280;40076;52.354;4.970;2024-03-23T04:12:43;100936.84;;;8.03;100.00
54172;BME280;40076;52.354;4.970;2024-03-23T04:15:09;100931.75;;;8.01;100.00
54172;BME280;40076;52.354;4.970;2024-03-23T04:17:34;100926.69;;;8.00;100.00
54172;BME280;40076;52.354;4.970;2024-03-23T04:20:00;100931.56;;;7.98;100.00
54172;BME280;40076;52.354;4.970;2024-03-23T04:22:27;100917.31;;;7.97;100.00
54172;BME280;40076;52.354;4.970;2024-03-23T04:24:53;100923.78;;;7.96;100.00
54172;BME280;40076;52.354;4.970;2024-03-23T04:27:19;100927.56;;;7.95;100.00
54172;BME280;40076;52.354;4.970;2024-03-23T04:29:48;100931.16;;;7.91;100.00
54172;BME280;40076;52.354;4.970;2024-03-23T04:32:14;100933.06;;;7.90;100.00
54172;BME280;40076;52.354;4.970;2024-03-23T04:34:39;100923.66;;;7.88;100.00
54172;BME280;40076;52.354;4.970;2024-03-23T04:37:05;100920.19;;;7.87;100.00
54172;BME280;40076;52.354;4.970;2024-03-23T04:39:30;100925.56;;;7.87;100.00
54172;BME280;40076;52.354;4.970;2024-03-23T04:41:58;100908.63;;;7.87;100.00
54172;BME280;40076;52.354;4.970;2024-03-23T04:44:23;100917.50;;;7.87;100.00
54172;BME280;40076;52.354;4.970;2024-03-23T04:46:49;100909.75;;;7.86;100.00
54172;BME280;40076;52.354;4.970;2024-03-23T04:49:14;100916.69;;;7.87;100.00
54172;BME280;40076;52.354;4.970;2024-03-23T04:51:39;100910.22;;;7.88;100.00
54172;BME280;40076;52.354;4.970;2024-03-23T04:54:07;100910.84;;;7.85;100.00
54172;BME280;40076;52.354;4.970;2024-03-23T04:56:32;100915.41;;;7.84;100.00
54172;BME280;40076;52.354;4.970;2024-03-23T04:58:58;100913.81;;;7.83;100.00
54172;BME280;40076;52.354;4.970;2024-03-23T05:01:27;100915.72;;;7.83;100.00
54172;BME280;40076;52.354;4.970;2024-03-23T05:03:52;100914.91;;;7.82;100.00
54172;BME280;40076;52.354;4.970;2024-03-23T05:06:21;100910.09;;;7.79;100.00
54172;BME280;40076;52.354;4.970;2024-03-23T05:08:46;100911.72;;;7.80;100.00
54172;BME280;40076;52.354;4.970;2024-03-23T05:11:11;100912.22;;;7.82;100.00
54172;BME280;40076;52.354;4.970;2024-03-23T05:13:37;100904.44;;;7.81;100.00
54172;BME280;40076;52.354;4.970;2024-03-23T05:16:02;100912.81;;;7.79;100.00
54172;BME280;40076;52.354;4.970;2024-03-23T05:18:28;100912.31;;;7.77;100.00
54172;BME280;40076;52.354;4.970;2024-03-23T05:20:58;100918.50;;;7.78;100.00
54172;BME280;40076;52.354;4.970;2024-03-23T05:23:24;100915.00;;;7.77;100.00
54172;BME280;40076;52.354;4.970;2024-03-23T05:25:50;100918.00;;;7.75;100.00
54172;BME280;40076;52.354;4.970;2024-03-23T05:28:19;100919.59;;;7.77;100.00
54172;BME280;40076;52.354;4.970;2024-03-23T05:30:50;100913.72;;;7.74;100.00
54172;BME280;40076;52.354;4.970;2024-03-23T05:33:17;100910.22;;;7.74;100.00
54172;BME280;40076;52.354;4.970;2024-03-23T05:35:43;100913.72;;;7.74;100.00
54172;BME280;40076;52.354;4.970;2024-03-23T05:38:08;100910.50;;;7.72;100.00
54172;BME280;40076;52.354;4.970;2024-03-23T05:40:33;100912.91;;;7.74;100.00
54172;BME280;40076;52.354;4.970;2024-03-23T05:43:02;100911.31;;;7.73;100.00
54172;BME280;40076;52.354;4.970;2024-03-23T05:45:28;100916.97;;;7.71;100.00
54172;BME280;40076;52.354;4.970;2024-03-23T05:47:54;100910.00;;;7.70;100.00
54172;BME280;40076;52.354;4.970;2024-03-23T05:50:19;100904.63;;;7.70;100.00
54172;BME280;40076;52.354;4.970;2024-03-23T05:52:44;100913.50;;;7.71;100.00
54172;BME280;40076;52.354;4.970;2024-03-23T05:55:10;100905.75;;;7.69;100.00
54172;BME280;40076;52.354;4.970;2024-03-23T05:57:35;100903.06;;;7.69;100.00
54172;BME280;40076;52.354;4.970;2024-03-23T06:00:00;100903.34;;;7.68;100.00
54172;BME280;40076;52.354;4.970;2024-03-23T06:02:26;100902.53;;;7.67;100.00
54172;BME280;40076;52.354;4.970;2024-03-23T06:04:51;100906.31;;;7.66;100.00
54172;BME280;40076;52.354;4.970;2024-03-23T06:07:19;100909.00;;;7.66;100.00
54172;BME280;40076;52.354;4.970;2024-03-23T06:09:44;100907.41;;;7.65;100.00
54172;BME280;40076;52.354;4.970;2024-03-23T06:12:10;100900.94;;;7.66;100.00
54172;BME280;40076;52.354;4.970;2024-03-23T06:14:35;100904.72;;;7.65;100.00
54172;BME280;40076;52.354;4.970;2024-03-23T06:17:00;100903.13;;;7.64;100.00
54172;BME280;40076;52.354;4.970;2024-03-23T06:19:27;100903.41;;;7.63;100.00
54172;BME280;40076;52.354;4.970;2024-03-23T06:21:53;100909.31;;;7.65;100.00
54172;BME280;40076;52.354;4.970;2024-03-23T06:24:22;100909.59;;;7.63;100.00
54172;BME280;40076;52.354;4.970;2024-03-23T06:26:48;100902.66;;;7.62;100.00
54172;BME280;40076;52.354;4.970;2024-03-23T06:29:13;100900.72;;;7.63;100.00
54172;BME280;40076;52.354;4.970;2024-03-23T06:31:38;100909.31;;;7.65;100.00
54172;BME280;40076;52.354;4.970;2024-03-23T06:34:04;100902.31;;;7.64;100.00
54172;BME280;40076;52.354;4.970;2024-03-23T06:36:29;100904.22;;;7.63;100.00
54172;BME280;40076;52.354;4.970;2024-03-23T06:38:56;100906.91;;;7.63;100.00
54172;BME280;40076;52.354;4.970;2024-03-23T06:41:23;100905.53;;;7.66;100.00
54172;BME280;40076;52.354;4.970;2024-03-23T06:43:49;100906.31;;;7.66;100.00
54172;BME280;40076;52.354;4.970;2024-03-23T06:46:14;100901.94;;;7.70;100.00
54172;BME280;40076;52.354;4.970;2024-03-23T06:48:40;100897.06;;;7.72;100.00
54172;BME280;40076;52.354;4.970;2024-03-23T06:51:05;100895.97;;;7.73;100.00
54172;BME280;40076;52.354;4.970;2024-03-23T06:53:31;100904.25;;;7.77;100.00
54172;BME280;40076;52.354;4.970;2024-03-23T06:55:57;100899.34;;;7.79;100.00
54172;BME280;40076;52.354;4.970;2024-03-23T06:58:24;100898.06;;;7.77;100.00
54172;BME280;40076;52.354;4.970;2024-03-23T07:00:50;100903.94;;;7.79;100.00
54172;BME280;40076;52.354;4.970;2024-03-23T07:03:16;100899.06;;;7.81;100.00
54172;BME280;40076;52.354;4.970;2024-03-23T07:05:42;100903.34;;;7.82;100.00
54172;BME280;40076;52.354;4.970;2024-03-23T07:08:08;100901.16;;;7.84;100.00
54172;BME280;40076;52.354;4.970;2024-03-23T07:10:33;100906.72;;;7.87;100.00
54172;BME280;40076;52.354;4.970;2024-03-23T07:12:59;100909.75;;;7.86;100.00
54172;BME280;40076;52.354;4.970;2024-03-23T07:15:24;100908.94;;;7.85;100.00
54172;BME280;40076;52.354;4.970;2024-03-23T07:17:50;100916.22;;;7.85;100.00
54172;BME280;40076;52.354;4.970;2024-03-23T07:20:15;100902.56;;;7.81;100.00
54172;BME280;40076;52.354;4.970;2024-03-23T07:22:41;100909.03;;;7.80;100.00
54172;BME280;40076;52.354;4.970;2024-03-23T07:25:06;100899.84;;;7.81;100.00
54172;BME280;40076;52.354;4.970;2024-03-23T07:27:37;100914.91;;;7.82;100.00
54172;BME280;40076;52.354;4.970;2024-03-23T07:30:03;100908.94;;;7.85;100.00
54172;BME280;40076;52.354;4.970;2024-03-23T07:32:28;100906.25;;;7.85;100.00
54172;BME280;40076;52.354;4.970;2024-03-23T07:34:53;100906.44;;;7.89;100.00
54172;BME280;40076;52.354;4.970;2024-03-23T07:37:19;100911.53;;;7.90;100.00
54172;BME280;40076;52.354;4.970;2024-03-23T07:39:44;100894.81;;;7.93;100.00
54172;BME280;40076;52.354;4.970;2024-03-23T07:42:17;100905.25;;;7.95;100.00
54172;BME280;40076;52.354;4.970;2024-03-23T07:44:42;100893.38;;;7.96;100.00
54172;BME280;40076;52.354;4.970;2024-03-23T07:47:08;100897.38;;;7.98;100.00
54172;BME280;40076;52.354;4.970;2024-03-23T07:49:33;100908.94;;;7.99;100.00
54172;BME280;40076;52.354;4.970;2024-03-23T07:51:58;100898.34;;;8.02;100.00
54172;BME280;40076;52.354;4.970;2024-03-23T07:54:24;100915.13;;;7.99;100.00
54172;BME280;40076;52.354;4.970;2024-03-23T07:56:49;100896.75;;;8.01;100.00
54172;BME280;40076;52.354;4.970;2024-03-23T07:59:14;100898.88;;;8.04;100.00
54172;BME280;40076;52.354;4.970;2024-03-23T08:01:40;100892.19;;;8.02;100.00
54172;BME280;40076;52.354;4.970;2024-03-23T08:04:07;100895.88;;;8.06;100.00
54172;BME280;40076;52.354;4.970;2024-03-23T08:06:33;100891.81;;;8.08;100.00
54172;BME280;40076;52.354;4.970;2024-03-23T08:08:58;100893.06;;;8.11;100.00
54172;BME280;40076;52.354;4.970;2024-03-23T08:11:31;100893.59;;;8.13;100.00
54172;BME280;40076;52.354;4.970;2024-03-23T08:13:57;100890.31;;;8.16;100.00
54172;BME280;40076;52.354;4.970;2024-03-23T08:16:23;100895.06;;;8.19;100.00
54172;BME280;40076;52.354;4.970;2024-03-23T08:18:51;100893.97;;;8.20;100.00
54172;BME280;40076;52.354;4.970;2024-03-23T08:21:16;100893.84;;;8.25;100.00
54172;BME280;40076;52.354;4.970;2024-03-23T08:23:41;100899.25;;;8.25;100.00
54172;BME280;40076;52.354;4.970;2024-03-23T08:26:11;100900.34;;;8.24;100.00
54172;BME280;40076;52.354;4.970;2024-03-23T08:28:37;100892.16;;;8.29;100.00
54172;BME280;40076;52.354;4.970;2024-03-23T08:31:16;100890.78;;;8.32;100.00
54172;BME280;40076;52.354;4.970;2024-03-23T08:33:44;100891.78;;;8.36;100.00
54172;BME280;40076;52.354;4.970;2024-03-23T08:36:15;100886.28;;;8.41;100.00
54172;BME280;40076;52.354;4.970;2024-03-23T08:38:41;100890.78;;;8.45;100.00
54172;BME280;40076;52.354;4.970;2024-03-23T08:41:14;100890.16;;;8.48;100.00
54172;BME280;40076;52.354;4.970;2024-03-23T08:43:41;100896.84;;;8.51;100.00
54172;BME280;40076;52.354;4.970;2024-03-23T08:46:13;100899.25;;;8.52;100.00
54172;BME280;40076;52.354;4.970;2024-03-23T08:48:47;100892.44;;;8.55;100.00
54172;BME280;40076;52.354;4.970;2024-03-23T08:51:15;100899.41;;;8.56;100.00
54172;BME280;40076;52.354;4.970;2024-03-23T08:53:41;100893.72;;;8.58;100.00
54172;BME280;40076;52.354;4.970;2024-03-23T08:56:07;100887.41;;;8.62;100.00
54172;BME280;40076;52.354;4.970;2024-03-23T08:58:33;100893.00;;;8.66;100.00
54172;BME280;40076;52.354;4.970;2024-03-23T09:01:10;100886.81;;;8.65;100.00
54172;BME280;40076;52.354;4.970;2024-03-23T09:03:36;100889.22;;;8.67;100.00
54172;BME280;40076;52.354;4.970;2024-03-23T09:06:08;100896.28;;;8.63;100.00
54172;BME280;40076;52.354;4.970;2024-03-23T09:08:34;100888.22;;;8.63;100.00
54172;BME280;40076;52.354;4.970;2024-03-23T09:11:04;100883.94;;;8.62;100.00
54172;BME280;40076;52.354;4.970;2024-03-23T09:13:31;100889.22;;;8.67;100.00
54172;BME280;40076;52.354;4.970;2024-03-23T09:15:59;100898.47;;;8.74;100.00
54172;BME280;40076;52.354;4.970;2024-03-23T09:18:34;100889.75;;;8.77;100.00
54172;BME280;40076;52.354;4.970;2024-03-23T09:21:11;100882.97;;;8.80;100.00
54172;BME280;40076;52.354;4.970;2024-03-23T09:23:48;100892.06;;;8.84;100.00
54172;BME280;40076;52.354;4.970;2024-03-23T09:26:14;100900.16;;;8.84;100.00
54172;BME280;40076;52.354;4.970;2024-03-23T09:28:44;100892.97;;;8.79;100.00
54172;BME280;40076;52.354;4.970;2024-03-23T09:31:10;100900.66;;;8.72;100.00
54172;BME280;40076;52.354;4.970;2024-03-23T09:33:39;100888.91;;;8.68;100.00
54172;BME280;40076;52.354;4.970;2024-03-23T09:36:06;100884.94;;;8.66;100.00
54172;BME280;40076;52.354;4.970;2024-03-23T09:38:34;100890.31;;;8.66;100.00
54172;BME280;40076;52.354;4.970;2024-03-23T09:41:09;100901.38;;;8.64;100.00
54172;BME280;40076;52.354;4.970;2024-03-23T09:43:38;100877.44;;;8.63;100.00
54172;BME280;40076;52.354;4.970;2024-03-23T09:46:09;100887.31;;;8.67;100.00
54172;BME280;40076;52.354;4.970;2024-03-23T09:48:36;100897.59;;;8.65;100.00
54172;BME280;40076;52.354;4.970;2024-03-23T09:51:12;100888.72;;;8.65;100.00
54172;BME280;40076;52.354;4.970;2024-03-23T09:53:37;100892.22;;;8.65;100.00
54172;BME280;40076;52.354;4.970;2024-03-23T09:56:03;100878.25;;;8.63;100.00
54172;BME280;40076;52.354;4.970;2024-03-23T09:58:29;100891.41;;;8.65;100.00
54172;BME280;40076;52.354;4.970;2024-03-23T10:00:54;100879.34;;;8.62;100.00
54172;BME280;40076;52.354;4.970;2024-03-23T10:03:20;100885.53;;;8.63;100.00
54172;BME280;40076;52.354;4.970;2024-03-23T10:05:45;100894.72;;;8.62;100.00
54172;BME280;40076;52.354;4.970;2024-03-23T10:10:39;100880.47;;;8.61;100.00
54172;BME280;40076;52.354;4.970;2024-03-23T10:13:04;100885.84;;;8.61;100.00
54172;BME280;40076;52.354;4.970;2024-03-23T10:15:29;100889.94;;;8.59;100.00
54172;BME280;40076;52.354;4.970;2024-03-23T10:17:55;100880.75;;;8.60;100.00
54172;BME280;40076;52.354;4.970;2024-03-23T10:20:21;100878.06;;;8.60;100.00
54172;BME280;40076;52.354;4.970;2024-03-23T10:22:50;100881.25;;;8.62;100.00
54172;BME280;40076;52.354;4.970;2024-03-23T10:25:23;100878.44;;;8.67;100.00
54172;BME280;40076;52.354;4.970;2024-03-23T10:28:00;100878.63;;;8.70;100.00
54172;BME280;40076;52.354;4.970;2024-03-23T10:30:26;100882.81;;;8.76;100.00
54172;BME280;40076;52.354;4.970;2024-03-23T10:33:09;100882.97;;;8.80;100.00
54172;BME280;40076;52.354;4.970;2024-03-23T10:35:36;100883.78;;;8.80;100.00
54172;BME280;40076;52.354;4.970;2024-03-23T10:38:06;100883.19;;;8.83;100.00
54172;BME280;40076;52.354;4.970;2024-03-23T10:40:35;100886.78;;;8.79;100.00
54172;BME280;40076;52.354;4.970;2024-03-23T10:43:09;100890.09;;;8.76;100.00
54172;BME280;40076;52.354;4.970;2024-03-23T10:45:34;100883.41;;;8.73;100.00
54172;BME280;40076;52.354;4.970;2024-03-23T10:48:00;100871.34;;;8.71;100.00
54172;BME280;40076;52.354;4.970;2024-03-23T10:50:25;100881.63;;;8.69;100.00
54172;BME280;40076;52.354;4.970;2024-03-23T10:52:54;100881.44;;;8.65;100.00
54172;BME280;40076;52.354;4.970;2024-03-23T10:55:24;100879.03;;;8.64;100.00
54172;BME280;40076;52.354;4.970;2024-03-23T10:57:54;100867.66;;;8.67;100.00
54172;BME280;40076;52.354;4.970;2024-03-23T11:00:20;100875.75;;;8.67;100.00
54172;BME280;40076;52.354;4.970;2024-03-23T11:02:48;100873.84;;;8.67;100.00
54172;BME280;40076;52.354;4.970;2024-03-23T11:07:54;100870.66;;;8.65;100.00
54172;BME280;40076;52.354;4.970;2024-03-23T11:10:30;100877.81;;;8.70;100.00
54172;BME280;40076;52.354;4.970;2024-03-23T11:13:21;100875.13;;;8.70;100.00
54172;BME280;40076;52.354;4.970;2024-03-23T11:15:47;100872.94;;;8.72;100.00
54172;BME280;40076;52.354;4.970;2024-03-23T11:18:20;100873.59;;;8.77;100.00
54172;BME280;40076;52.354;4.970;2024-03-23T11:20:45;100885.16;;;8.78;100.00
54172;BME280;40076;52.354;4.970;2024-03-23T11:23:27;100870.59;;;8.79;100.00
54172;BME280;40076;52.354;4.970;2024-03-23T11:25:52;100861.91;;;8.82;100.00
54172;BME280;40076;52.354;4.970;2024-03-23T11:28:18;100871.47;;;8.88;100.00
54172;BME280;40076;52.354;4.970;2024-03-23T11:30:43;100868.78;;;8.88;100.00
54172;BME280;40076;52.354;4.970;2024-03-23T11:33:09;100859.00;;;8.92;100.00
54172;BME280;40076;52.354;4.970;2024-03-23T11:35:38;100867.75;;;8.98;100.00
54172;BME280;40076;52.354;4.970;2024-03-23T11:38:07;100859.53;;;9.03;100.00
54172;BME280;40076;52.354;4.970;2024-03-23T11:40:33;100872.69;;;9.04;100.00
54172;BME280;40076;52.354;4.970;2024-03-23T11:43:00;100858.13;;;9.05;100.00
54172;BME280;40076;52.354;4.970;2024-03-23T11:45:26;100855.44;;;9.05;100.00
54172;BME280;40076;52.354;4.970;2024-03-23T11:48:07;100860.03;;;9.05;100.00
54172;BME280;40076;52.354;4.970;2024-03-23T11:50:35;100864.63;;;9.04;99.84
54172;BME280;40076;52.354;4.970;2024-03-23T11:53:16;100878.38;;;9.03;98.82
54172;BME280;40076;52.354;4.970;2024-03-23T11:55:51;100869.81;;;9.01;99.81
54172;BME280;40076;52.354;4.970;2024-03-23T11:58:18;100876.31;;;9.00;100.00
54172;BME280;40076;52.354;4.970;2024-03-23T12:01:00;100868.34;;;8.95;100.00
54172;BME280;40076;52.354;4.970;2024-03-23T12:03:27;100875.63;;;8.94;100.00
54172;BME280;40076;52.354;4.970;2024-03-23T12:05:57;100870.38;;;8.89;100.00
54172;BME280;40076;52.354;4.970;2024-03-23T12:08:34;100881.88;;;8.81;100.00
54172;BME280;40076;52.354;4.970;2024-03-23T12:13:33;100872.78;;;8.55;100.00
54172;BME280;40076;52.354;4.970;2024-03-23T12:18:36;100898.25;;;8.21;100.00
54172;BME280;40076;52.354;4.970;2024-03-23T12:21:02;100862.88;;;8.14;100.00
54172;BME280;40076;52.354;4.970;2024-03-23T12:23:28;100858.72;;;8.08;100.00
54172;BME280;40076;52.354;4.970;2024-03-23T12:25:53;100855.81;;;8.04;100.00
54172;BME280;40076;52.354;4.970;2024-03-23T12:28:19;100859.88;;;8.02;100.00
54172;BME280;40076;52.354;4.970;2024-03-23T12:30:52;100851.34;;;8.00;100.00
54172;BME280;40076;52.354;4.970;2024-03-23T12:33:18;100841.97;;;7.97;100.00
54172;BME280;40076;52.354;4.970;2024-03-23T12:35:43;100843.69;;;7.93;100.00
54172;BME280;40076;52.354;4.970;2024-03-23T12:38:11;100843.97;;;7.92;100.00
54172;BME280;40076;52.354;4.970;2024-03-23T12:40:38;100837.78;;;7.91;100.00
54172;BME280;40076;52.354;4.970;2024-03-23T12:43:04;100829.91;;;7.95;100.00
54172;BME280;40076;52.354;4.970;2024-03-23T12:45:29;100831.00;;;7.94;100.00
54172;BME280;40076;52.354;4.970;2024-03-23T12:47:54;100834.41;;;7.99;100.00
54172;BME280;40076;52.354;4.970;2024-03-23T12:50:21;100831.09;;;8.02;100.00
54172;BME280;40076;52.354;4.970;2024-03-23T12:52:46;100829.09;;;8.08;100.00
54172;BME280;40076;52.354;4.970;2024-03-23T12:55:12;100822.81;;;8.12;100.00
54172;BME280;40076;52.354;4.970;2024-03-23T12:57:37;100823.31;;;8.14;100.00
54172;BME280;40076;52.354;4.970;2024-03-23T13:00:03;100820.50;;;8.20;100.00
54172;BME280;40076;52.354;4.970;2024-03-23T13:02:29;100857.25;;;8.24;100.00
54172;BME280;40076;52.354;4.970;2024-03-23T13:04:55;100859.78;;;8.21;100.00
54172;BME280;40076;52.354;4.970;2024-03-23T13:07:22;100866.56;;;8.18;100.00
54172;BME280;40076;52.354;4.970;2024-03-23T13:09:50;100843.75;;;8.16;100.00
54172;BME280;40076;52.354;4.970;2024-03-23T13:12:16;100835.56;;;8.21;100.00
54172;BME280;40076;52.354;4.970;2024-03-23T13:15:01;100834.25;;;8.18;100.00
54172;BME280;40076;52.354;4.970;2024-03-23T13:17:27;100827.78;;;8.19;100.00
54172;BME280;40076;52.354;4.970;2024-03-23T13:19:53;100832.06;;;8.20;100.00
54172;BME280;40076;52.354;4.970;2024-03-23T13:22:18;100835.56;;;8.21;100.00
54172;BME280;40076;52.354;4.970;2024-03-23T13:24:44;100821.28;;;8.20;100.00
54172;BME280;40076;52.354;4.970;2024-03-23T13:27:10;100809.72;;;8.20;100.00
54172;BME280;40076;52.354;4.970;2024-03-23T13:29:36;100807.03;;;8.20;100.00
54172;BME280;40076;52.354;4.970;2024-03-23T13:32:05;100805.94;;;8.21;100.00
54172;BME280;40076;52.354;4.970;2024-03-23T13:34:40;100799.63;;;8.25;100.00
54172;BME280;40076;52.354;4.970;2024-03-23T13:37:05;100796.84;;;8.30;100.00
54172;BME280;40076;52.354;4.970;2024-03-23T13:39:32;100798.66;;;8.35;100.00
54172;BME280;40076;52.354;4.970;2024-03-23T13:41:57;100785.06;;;8.40;100.00
54172;BME280;40076;52.354;4.970;2024-03-23T13:44:23;100785.75;;;8.45;100.00
54172;BME280;40076;52.354;4.970;2024-03-23T13:46:49;100791.63;;;8.47;100.00
54172;BME280;40076;52.354;4.970;2024-03-23T13:49:28;100792.31;;;8.53;100.00
54172;BME280;40076;52.354;4.970;2024-03-23T13:51:57;100782.50;;;8.57;100.00
54172;BME280;40076;52.354;4.970;2024-03-23T13:54:24;100784.31;;;8.62;100.00